Time;durP1;ratioP1;P1;durP2;ratioP2;P2;SDS_P1;SDS_P2;PMS_P1;PMS_P2;Temp;Humidity;BMP_temperature;BMP_pressure;BME280_temperature;BME280_humidity;BME280_pressure;Samples;Min_cycle;Max_cycle;Signal;HPM_P1;HPM_P2
2021/06/17 00:01:40;;;;;;;9.65;6.70;;;24.00;65.10;;;;;;5112408;28;20023;-75
2021/06/17 00:04:06;;;;;;;8.82;6.93;;;23.90;65.30;;;;;;5111138;28;20031;-76
2021/06/17 00:06:31;;;;;;;8.30;6.50;;;23.90;65.30;;;;;;5110621;28;20094;-76
2021/06/17 00:08:57;;;;;;;9.00;6.78;;;23.90;65.10;;;;;;5112507;28;20113;-76
2021/06/17 00:11:23;;;;;;;12.23;7.43;;;23.80;65.50;;;;;;5113834;28;20015;-75
2021/06/17 00:13:48;;;;;;;9.18;7.00;;;23.80;65.60;;;;;;5114995;28;20561;-74
2021/06/17 00:16:14;;;;;;;10.25;6.60;;;23.80;65.70;;;;;;5116139;28;20048;-75
2021/06/17 00:18:40;;;;;;;12.48;7.22;;;23.70;65.70;;;;;;5116052;28;20039;-75
2021/06/17 00:21:06;;;;;;;9.30;6.80;;;23.70;65.60;;;;;;5116306;28;20051;-75
2021/06/17 00:23:32;;;;;;;10.85;6.97;;;23.70;65.90;;;;;;5114742;28;20088;-74
2021/06/17 00:25:58;;;;;;;9.32;7.38;;;23.70;66.30;;;;;;5116480;28;20028;-75
2021/06/17 00:28:25;;;;;;;10.57;7.50;;;23.70;66.00;;;;;;5114926;28;20031;-75
2021/06/17 00:30:53;;;;;;;12.68;8.43;;;23.70;65.80;;;;;;5114739;28;20024;-75
2021/06/17 00:33:19;;;;;;;9.15;6.82;;;23.70;66.00;;;;;;5114679;28;20034;-75
2021/06/17 00:35:45;;;;;;;10.20;7.78;;;23.70;66.20;;;;;;5118026;28;20110;-75
2021/06/17 00:38:11;;;;;;;9.10;7.00;;;23.60;66.50;;;;;;5135943;28;20039;-75
2021/06/17 00:40:36;;;;;;;10.25;7.57;;;23.60;66.80;;;;;;5119844;28;20024;-75
2021/06/17 00:43:03;;;;;;;11.75;8.23;;;23.60;66.60;;;;;;5137892;28;20024;-75
2021/06/17 00:45:32;;;;;;;11.30;7.43;;;23.60;66.90;;;;;;5115619;28;20023;-75
2021/06/17 00:47:58;;;;;;;10.25;8.52;;;23.50;66.90;;;;;;5115887;28;20555;-75
2021/06/17 00:50:27;;;;;;;11.63;8.50;;;23.60;67.00;;;;;;5115760;28;20055;-75
2021/06/17 00:52:52;;;;;;;11.35;7.55;;;23.50;66.80;;;;;;5115410;28;20424;-74
2021/06/17 00:55:18;;;;;;;10.93;7.65;;;23.50;67.30;;;;;;5115510;28;20031;-74
2021/06/17 00:57:44;;;;;;;9.70;7.10;;;23.50;67.30;;;;;;5114220;28;20104;-74
2021/06/17 01:00:12;;;;;;;10.80;7.00;;;23.40;67.30;;;;;;5114463;28;20027;-74
2021/06/17 01:02:38;;;;;;;12.43;7.95;;;23.40;67.70;;;;;;5114461;28;20367;-74
2021/06/17 01:05:20;;;;;;;10.88;7.70;;;23.40;67.70;;;;;;5116088;28;20031;-75
2021/06/17 01:08:04;;;;;;;12.02;7.30;;;23.40;68.00;;;;;;5115593;28;20035;-75
2021/06/17 01:11:00;;;;;;;9.43;7.22;;;23.40;68.20;;;;;;5114184;28;20114;-74
2021/06/17 01:13:31;;;;;;;9.32;7.72;;;23.30;68.10;;;;;;5115520;28;20028;-75
2021/06/17 01:16:35;;;;;;;10.50;8.00;;;23.20;68.20;;;;;;5115230;28;20491;-75
2021/06/17 01:19:09;;;;;;;8.68;7.00;;;23.20;67.90;;;;;;5115164;28;20035;-75
2021/06/17 01:21:44;;;;;;;12.32;7.47;;;23.20;67.90;;;;;;5114843;28;20573;-75
2021/06/17 01:24:41;;;;;;;10.80;8.38;;;23.20;68.30;;;;;;5113939;28;20475;-75
2021/06/17 01:27:43;;;;;;;10.90;7.55;;;23.20;68.30;;;;;;5115414;28;20092;-75
2021/06/17 01:30:14;;;;;;;12.65;7.97;;;23.20;68.30;;;;;;5115575;28;20451;-75
2021/06/17 01:32:46;;;;;;;9.98;7.18;;;23.10;68.50;;;;;;5114801;28;20047;-75
2021/06/17 01:35:14;;;;;;;11.57;7.70;;;23.10;68.50;;;;;;5113802;28;20016;-75
2021/06/17 01:37:41;;;;;;;12.85;8.45;;;23.10;68.50;;;;;;5114892;28;20196;-75
2021/06/17 01:40:10;;;;;;;9.55;6.82;;;23.10;68.20;;;;;;5114911;27;20026;-74
2021/06/17 01:42:39;;;;;;;11.75;7.95;;;23.10;68.20;;;;;;5114403;27;20144;-75
2021/06/17 01:45:05;;;;;;;13.35;8.35;;;23.10;68.40;;;;;;5115196;28;20024;-75
2021/06/17 01:47:32;;;;;;;9.98;8.27;;;23.10;68.60;;;;;;5114841;28;20020;-75
2021/06/17 01:50:00;;;;;;;13.77;8.48;;;23.10;69.00;;;;;;5114127;28;20087;-75
2021/06/17 01:52:29;;;;;;;11.48;8.15;;;23.00;69.30;;;;;;5127211;28;20016;-75
2021/06/17 01:54:57;;;;;;;11.52;8.48;;;23.00;69.30;;;;;;5132896;28;20031;-74
2021/06/17 01:57:24;;;;;;;11.13;8.32;;;23.00;69.40;;;;;;5114455;28;20038;-75
2021/06/17 01:59:51;;;;;;;10.68;7.75;;;23.00;69.70;;;;;;5114436;28;20043;-75
2021/06/17 02:02:19;;;;;;;11.20;8.82;;;23.00;69.80;;;;;;5114085;28;20454;-75
2021/06/17 02:04:47;;;;;;;15.65;9.15;;;23.00;69.50;;;;;;5113991;28;20490;-75
2021/06/17 02:07:14;;;;;;;15.00;9.63;;;22.90;69.30;;;;;;5112944;28;20027;-75
2021/06/17 02:09:40;;;;;;;14.30;8.90;;;22.90;69.30;;;;;;5112602;28;20026;-74
2021/06/17 02:12:06;;;;;;;15.57;10.52;;;22.90;69.10;;;;;;5114287;28;20023;-74
2021/06/17 02:14:33;;;;;;;13.65;9.63;;;22.90;69.70;;;;;;5113928;28;20077;-75
2021/06/17 02:17:02;;;;;;;14.73;10.43;;;22.90;69.80;;;;;;5113379;28;20043;-74
2021/06/17 02:19:29;;;;;;;15.52;9.80;;;22.90;70.20;;;;;;5112610;28;20028;-75
2021/06/17 02:21:58;;;;;;;12.38;9.68;;;22.90;70.50;;;;;;5112409;28;20020;-75
2021/06/17 02:24:26;;;;;;;15.48;9.18;;;22.80;70.60;;;;;;5114041;28;20089;-75
2021/06/17 02:26:57;;;;;;;11.65;9.60;;;22.80;70.40;;;;;;5113698;28;20353;-75
2021/06/17 02:29:23;;;;;;;13.75;11.13;;;22.80;70.40;;;;;;5113583;28;20027;-75
2021/06/17 02:31:51;;;;;;;15.93;12.02;;;22.80;70.80;;;;;;5113969;28;20103;-74
2021/06/17 02:34:18;;;;;;;18.38;12.02;;;22.80;70.80;;;;;;5112861;28;20020;-74
2021/06/17 02:36:45;;;;;;;11.48;8.65;;;22.70;70.70;;;;;;5113768;28;20037;-75
2021/06/17 02:39:13;;;;;;;13.32;10.90;;;22.70;70.50;;;;;;5121393;28;20032;-75
2021/06/17 02:41:44;;;;;;;15.27;10.23;;;22.70;70.60;;;;;;5127784;28;20031;-75
2021/06/17 02:44:11;;;;;;;16.23;12.85;;;22.70;70.60;;;;;;5125762;28;20015;-74
2021/06/17 02:46:37;;;;;;;14.70;10.30;;;22.80;70.80;;;;;;5127122;28;20028;-75
2021/06/17 02:49:07;;;;;;;14.00;10.43;;;22.70;70.60;;;;;;5113436;28;20038;-75
2021/06/17 02:51:32;;;;;;;10.13;7.72;;;22.70;70.60;;;;;;5113634;28;20451;-74
2021/06/17 02:53:58;;;;;;;15.00;12.77;;;22.70;70.10;;;;;;5113365;28;20031;-75
2021/06/17 02:56:48;;;;;;;13.27;9.85;;;22.70;70.90;;;;;;5114125;28;20028;-74
2021/06/17 02:59:23;;;;;;;;;;;22.70;69.60;;;;;;5114068;28;20475;-75
2021/06/17 03:02:05;;;;;;;16.10;12.48;;;22.60;71.10;;;;;;5112948;28;19999;-75
2021/06/17 03:04:49;;;;;;;16.25;14.32;;;22.60;70.70;;;;;;5113194;28;20125;-74
2021/06/17 03:07:31;;;;;;;18.13;13.93;;;22.60;71.50;;;;;;5111968;28;20420;-75
2021/06/17 03:10:01;;;;;;;17.30;14.25;;;22.60;71.30;;;;;;5111617;28;20011;-75
2021/06/17 03:12:28;;;;;;;16.52;13.60;;;22.60;70.80;;;;;;5113214;28;20023;-74
2021/06/17 03:14:56;;;;;;;16.25;13.63;;;22.60;71.50;;;;;;5112885;28;20364;-74
2021/06/17 03:17:23;;;;;;;15.30;13.73;;;22.60;71.40;;;;;;5113253;28;20491;-74
2021/06/17 03:19:51;;;;;;;10.25;7.40;;;22.60;70.50;;;;;;5111590;28;20019;-74
2021/06/17 03:22:18;;;;;;;14.45;11.48;;;22.60;68.50;;;;;;5111934;28;20058;-74
2021/06/17 03:24:48;;;;;;;15.63;11.85;;;22.60;69.30;;;;;;5112515;28;20024;-75
2021/06/17 03:27:14;;;;;;;;;;;22.70;69.80;;;;;;5113340;28;20038;-74
2021/06/17 03:29:47;;;;;;;19.92;16.45;;;22.70;70.10;;;;;;5113234;28;19907;-74
2021/06/17 03:32:13;;;;;;;15.93;13.27;;;22.80;70.00;;;;;;5111678;28;20023;-74
2021/06/17 03:34:42;;;;;;;13.80;10.40;;;22.80;69.70;;;;;;5113029;28;20073;-74
2021/06/17 03:37:10;;;;;;;14.98;11.75;;;22.80;68.50;;;;;;5112853;28;20031;-75
2021/06/17 03:39:37;;;;;;;10.80;9.15;;;22.80;69.00;;;;;;5112739;28;20016;-75
2021/06/17 03:42:04;;;;;;;18.35;15.88;;;22.80;69.00;;;;;;5112466;28;20031;-74
2021/06/17 03:44:30;;;;;;;14.93;11.23;;;22.80;69.90;;;;;;5113048;28;20019;-73
2021/06/17 03:46:58;;;;;;;12.18;9.55;;;22.80;68.80;;;;;;5116507;28;20028;-74
2021/06/17 03:49:24;;;;;;;18.25;14.30;;;22.80;68.30;;;;;;5117594;28;20023;-75
2021/06/17 03:51:51;;;;;;;9.77;8.15;;;22.80;69.90;;;;;;5118527;28;20020;-75
2021/06/17 03:54:25;;;;;;;17.65;15.30;;;22.80;68.40;;;;;;5123834;28;20043;-74
2021/06/17 03:56:53;;;;;;;15.45;9.50;;;22.80;70.00;;;;;;5136043;28;20027;-74
2021/06/17 03:59:22;;;;;;;21.05;17.67;;;22.80;68.40;;;;;;5117329;28;20023;-75
2021/06/17 04:01:49;;;;;;;16.08;13.82;;;22.80;69.30;;;;;;5116537;28;20107;-74
2021/06/17 04:04:15;;;;;;;16.10;14.27;;;22.80;68.10;;;;;;5117008;28;20034;-74
2021/06/17 04:06:41;;;;;;;18.38;16.38;;;22.90;68.80;;;;;;5116638;28;20024;-76
2021/06/17 04:09:07;;;;;;;16.45;14.73;;;22.90;69.70;;;;;;5116321;28;20099;-74
2021/06/17 04:11:33;;;;;;;23.80;17.52;;;22.90;69.50;;;;;;5116533;28;20019;-75
2021/06/17 04:13:59;;;;;;;12.63;10.20;;;22.90;69.80;;;;;;5116223;28;20020;-75
2021/06/17 04:16:29;;;;;;;13.15;10.18;;;23.00;68.80;;;;;;5114859;28;20100;-75
2021/06/17 04:18:56;;;;;;;11.00;8.88;;;23.00;67.70;;;;;;5115841;28;20429;-74
2021/06/17 04:21:22;;;;;;;21.92;18.13;;;23.00;67.60;;;;;;5116143;28;20031;-75
2021/06/17 04:23:54;;;;;;;16.38;14.65;;;23.00;69.70;;;;;;5116031;28;20027;-75
2021/06/17 04:26:22;;;;;;;15.68;13.55;;;23.10;69.20;;;;;;5116264;28;20030;-75
2021/06/17 04:28:48;;;;;;;14.75;11.65;;;23.00;69.60;;;;;;5115997;28;20027;-75
2021/06/17 04:31:15;;;;;;;15.65;13.95;;;23.00;69.10;;;;;;5115983;28;20368;-74
2021/06/17 04:33:42;;;;;;;14.23;12.73;;;23.00;67.80;;;;;;5114916;28;20110;-74
2021/06/17 04:36:08;;;;;;;11.07;8.57;;;23.10;67.10;;;;;;5114576;28;20055;-74
2021/06/17 04:38:34;;;;;;;17.05;14.23;;;23.10;65.80;;;;;;5116441;28;20126;-74
2021/06/17 04:41:00;;;;;;;16.98;13.65;;;23.10;66.10;;;;;;5124880;28;20047;-74
2021/06/17 04:43:26;;;;;;;22.23;17.67;;;23.10;68.00;;;;;;5118284;28;20367;-74
2021/06/17 04:45:54;;;;;;;15.18;13.35;;;23.20;68.80;;;;;;5118391;28;20027;-76
2021/06/17 04:48:22;;;;;;;14.85;12.85;;;23.20;66.60;;;;;;5131750;28;20019;-74
2021/06/17 04:50:48;;;;;;;9.73;6.68;;;23.20;67.40;;;;;;5114348;28;20035;-74
2021/06/17 04:53:18;;;;;;;9.68;7.85;;;23.20;65.80;;;;;;5115988;28;20032;-75
2021/06/17 04:55:47;;;;;;;12.65;10.73;;;23.20;65.90;;;;;;5115859;28;20435;-75
2021/06/17 04:58:13;;;;;;;16.95;8.57;;;23.30;65.90;;;;;;5113265;28;20391;-75
2021/06/17 05:00:39;;;;;;;16.55;13.38;;;23.30;66.10;;;;;;5115763;28;20485;-75
2021/06/17 05:03:05;;;;;;;13.85;11.93;;;23.30;66.90;;;;;;5115706;28;20028;-75
2021/06/17 05:05:31;;;;;;;19.45;16.75;;;23.40;66.20;;;;;;5115619;28;20016;-75
2021/06/17 05:10:52;;;;;;;15.40;13.38;;;23.60;66.40;;;;;;5115787;28;20085;-75
2021/06/17 05:13:23;;;;;;;16.98;13.98;;;23.60;66.00;;;;;;5115510;28;20020;-75
2021/06/17 05:15:50;;;;;;;19.55;15.23;;;23.70;66.50;;;;;;5114834;28;20514;-75
2021/06/17 05:18:20;;;;;;;9.30;7.15;;;23.70;66.30;;;;;;5115401;28;20070;-75
2021/06/17 05:20:46;;;;;;;;;;;23.70;64.40;;;;;;5114575;28;20047;-75
2021/06/17 05:23:14;;;;;;;20.00;15.60;;;23.90;63.40;;;;;;5113692;28;19904;-74
2021/06/17 05:25:41;;;;;;;16.77;12.32;;;23.90;65.30;;;;;;5113957;28;20448;-75
2021/06/17 05:28:07;;;;;;;9.27;6.55;;;24.00;64.60;;;;;;5114869;28;20080;-75
2021/06/17 05:30:33;;;;;;;15.98;11.55;;;24.10;63.60;;;;;;5114875;28;20024;-75
2021/06/17 05:32:58;;;;;;;13.43;9.52;;;24.20;63.40;;;;;;5114749;28;20028;-74
2021/06/17 05:35:24;;;;;;;13.82;9.02;;;24.30;63.90;;;;;;5115103;28;20428;-74
2021/06/17 05:37:50;;;;;;;14.48;9.02;;;24.40;62.10;;;;;;5113400;28;20472;-75
2021/06/17 05:40:16;;;;;;;20.08;15.27;;;24.40;62.60;;;;;;5113716;28;20023;-75
2021/06/17 05:42:42;;;;;;;15.27;11.38;;;24.40;64.00;;;;;;5115133;28;20055;-75
2021/06/17 05:45:08;;;;;;;10.52;7.78;;;24.50;64.10;;;;;;5114901;28;20315;-75
2021/06/17 05:47:35;;;;;;;11.40;9.20;;;24.50;62.90;;;;;;5113236;28;20030;-75
2021/06/17 05:50:01;;;;;;;10.68;7.68;;;24.50;63.10;;;;;;5115333;28;20051;-75
2021/06/17 05:52:26;;;;;;;17.83;13.57;;;24.60;62.20;;;;;;5114967;28;20448;-75
2021/06/17 05:54:52;;;;;;;14.40;10.32;;;24.60;63.30;;;;;;5115101;28;20030;-75
2021/06/17 05:57:17;;;;;;;10.38;8.00;;;24.70;61.80;;;;;;5122654;28;20075;-74
2021/06/17 05:59:43;;;;;;;19.05;12.55;;;24.70;62.10;;;;;;5133399;28;20560;-75
2021/06/17 06:02:10;;;;;;;10.57;8.80;;;24.80;62.40;;;;;;5114244;28;20041;-75
2021/06/17 06:04:36;;;;;;;13.07;10.65;;;24.90;61.40;;;;;;5115006;28;20452;-76
2021/06/17 06:07:02;;;;;;;15.55;10.77;;;25.00;62.10;;;;;;5114216;28;20047;-75
2021/06/17 06:09:27;;;;;;;13.95;9.40;;;25.10;62.30;;;;;;5112769;28;20022;-75
2021/06/17 06:11:53;;;;;;;12.40;8.23;;;25.10;62.40;;;;;;5112656;28;20507;-74
2021/06/17 06:14:19;;;;;;;9.13;7.30;;;25.20;62.40;;;;;;5114076;28;20102;-75
2021/06/17 06:16:44;;;;;;;10.80;8.18;;;25.30;61.20;;;;;;5112670;28;20458;-73
2021/06/17 06:19:10;;;;;;;16.48;11.30;;;25.40;60.70;;;;;;5112802;28;20032;-74
2021/06/17 06:21:36;;;;;;;16.67;12.95;;;25.40;61.40;;;;;;5112769;28;20027;-74
2021/06/17 06:24:01;;;;;;;7.93;4.97;;;25.50;61.60;;;;;;5112659;28;20028;-74
2021/06/17 06:26:27;;;;;;;8.75;6.80;;;25.50;59.60;;;;;;5112813;28;20019;-75
2021/06/17 06:28:52;;;;;;;8.48;5.30;;;25.60;60.20;;;;;;5112951;28;20357;-74
2021/06/17 06:31:18;;;;;;;10.30;6.18;;;25.80;59.80;;;;;;5112993;28;20106;-74
2021/06/17 06:33:44;;;;;;;11.73;6.95;;;25.90;59.50;;;;;;5114618;28;20032;-75
2021/06/17 06:36:09;;;;;;;6.28;4.65;;;26.00;59.80;;;;;;5112323;28;20019;-75
2021/06/17 06:38:35;;;;;;;8.18;5.63;;;26.10;58.00;;;;;;5112026;28;20034;-74
2021/06/17 06:41:01;;;;;;;12.57;9.98;;;26.20;59.30;;;;;;5113489;28;20079;-74
2021/06/17 06:43:26;;;;;;;9.35;6.25;;;26.30;59.60;;;;;;5115025;28;20019;-74
2021/06/17 06:45:52;;;;;;;13.45;10.25;;;26.40;58.90;;;;;;5133607;27;20407;-75
2021/06/17 06:48:18;;;;;;;15.02;8.15;;;26.40;58.50;;;;;;5116290;28;20127;-76
2021/06/17 06:50:44;;;;;;;10.93;6.75;;;26.50;58.50;;;;;;5133710;28;20019;-74
2021/06/17 06:53:10;;;;;;;9.18;5.47;;;26.70;57.60;;;;;;5113482;28;20055;-75
2021/06/17 06:55:36;;;;;;;8.65;4.72;;;26.80;56.90;;;;;;5112495;28;20062;-75
2021/06/17 06:58:02;;;;;;;11.77;6.97;;;27.10;56.00;;;;;;5113237;28;20036;-76
2021/06/17 07:00:28;;;;;;;11.70;6.50;;;27.20;56.60;;;;;;5113347;28;20016;-76
2021/06/17 07:02:53;;;;;;;11.38;7.47;;;27.20;56.30;;;;;;5113433;28;20352;-75
2021/06/17 07:05:19;;;;;;;8.98;6.03;;;27.20;57.20;;;;;;5113197;28;20039;-75
2021/06/17 07:07:47;;;;;;;12.23;6.40;;;27.20;56.50;;;;;;5113483;28;20031;-74
2021/06/17 07:10:13;;;;;;;13.68;6.80;;;27.20;57.00;;;;;;5111908;28;20111;-75
2021/06/17 07:12:40;;;;;;;13.65;8.73;;;27.10;57.20;;;;;;5111993;28;20530;-75
2021/06/17 07:15:06;;;;;;;7.03;4.80;;;27.00;57.70;;;;;;5113122;28;20034;-74
2021/06/17 07:17:32;;;;;;;7.55;5.00;;;27.00;57.50;;;;;;5112697;28;20056;-74
2021/06/17 07:19:58;;;;;;;13.68;7.82;;;27.00;58.10;;;;;;5112530;28;20079;-73
2021/06/17 07:22:24;;;;;;;12.13;7.10;;;26.90;57.70;;;;;;5113267;28;20224;-75
2021/06/17 07:24:53;;;;;;;10.57;6.43;;;27.00;57.70;;;;;;5111615;28;20034;-75
2021/06/17 07:27:19;;;;;;;9.77;5.65;;;27.00;57.90;;;;;;5112843;28;20097;-75
2021/06/17 07:29:44;;;;;;;15.55;7.50;;;26.90;57.80;;;;;;5111822;28;20452;-75
2021/06/17 07:32:10;;;;;;;9.00;5.53;;;26.90;58.80;;;;;;5112498;28;20012;-75
2021/06/17 07:34:36;;;;;;;10.48;7.75;;;26.90;58.00;;;;;;5111730;28;20019;-75
2021/06/17 07:37:02;;;;;;;11.27;6.88;;;26.90;58.00;;;;;;5112439;28;20495;-75
2021/06/17 07:39:28;;;;;;;11.48;8.60;;;27.00;58.30;;;;;;5112721;28;20053;-75
2021/06/17 07:41:53;;;;;;;9.07;5.28;;;27.00;58.40;;;;;;5112961;28;20475;-75
2021/06/17 07:44:19;;;;;;;10.70;5.43;;;27.20;58.00;;;;;;5112925;28;20436;-75
2021/06/17 07:46:45;;;;;;;11.88;5.88;;;27.50;57.90;;;;;;5112650;28;20033;-75
2021/06/17 07:49:10;;;;;;;9.60;6.70;;;27.80;57.10;;;;;;5112919;28;20028;-74
2021/06/17 07:51:37;;;;;;;14.38;7.22;;;28.00;56.10;;;;;;5112862;28;20372;-75
2021/06/17 07:54:03;;;;;;;11.45;5.60;;;28.10;56.50;;;;;;5111526;28;20150;-75
2021/06/17 07:56:30;;;;;;;9.02;5.57;;;28.40;55.90;;;;;;5113800;28;20027;-75
2021/06/17 07:58:56;;;;;;;7.88;5.43;;;28.60;55.10;;;;;;5117592;28;20059;-73
2021/06/17 08:01:23;;;;;;;7.85;5.10;;;28.70;54.20;;;;;;5133666;28;20027;-74
2021/06/17 08:03:49;;;;;;;10.65;4.57;;;28.90;53.90;;;;;;5115370;28;20456;-75
2021/06/17 08:06:15;;;;;;;8.82;4.43;;;29.00;53.10;;;;;;5111199;28;20069;-75
2021/06/17 08:08:42;;;;;;;8.05;5.03;;;29.20;52.60;;;;;;5112508;28;20024;-75
2021/06/17 08:11:08;;;;;;;12.15;4.80;;;29.30;50.10;;;;;;5112488;28;20039;-75
2021/06/17 08:13:33;;;;;;;11.13;5.18;;;29.40;51.00;;;;;;5112886;28;20474;-74
2021/06/17 08:15:59;;;;;;;8.65;4.40;;;29.50;49.70;;;;;;5111018;28;20077;-74
2021/06/17 08:18:24;;;;;;;7.65;4.90;;;29.60;51.00;;;;;;5111261;28;20440;-74
2021/06/17 08:20:50;;;;;;;10.43;5.30;;;29.70;50.90;;;;;;5113123;28;20030;-73
2021/06/17 08:23:19;;;;;;;8.02;3.63;;;29.70;51.00;;;;;;5112758;28;20020;-75
2021/06/17 08:25:45;;;;;;;10.27;5.82;;;29.80;51.40;;;;;;5111361;28;20051;-75
2021/06/17 08:28:10;;;;;;;9.90;5.22;;;30.00;49.20;;;;;;5112241;28;20468;-75
2021/06/17 08:30:37;;;;;;;6.82;4.30;;;30.00;49.90;;;;;;5111231;28;20046;-75
2021/06/17 08:33:02;;;;;;;10.88;4.57;;;30.10;50.40;;;;;;5115777;28;20024;-75
2021/06/17 08:35:28;;;;;;;9.00;4.20;;;30.20;50.20;;;;;;5116248;28;20444;-76
2021/06/17 08:38:07;;;;;;;8.95;4.75;;;30.30;50.10;;;;;;5116608;28;20038;-75
2021/06/17 08:40:34;;;;;;;10.57;4.97;;;30.50;50.20;;;;;;5115359;28;20376;-75
2021/06/17 08:43:02;;;;;;;10.40;4.78;;;30.60;49.60;;;;;;5116513;28;20342;-74
2021/06/17 08:45:28;;;;;;;10.25;5.10;;;30.60;47.80;;;;;;5115855;28;20394;-75
2021/06/17 08:47:54;;;;;;;11.18;4.65;;;30.60;48.60;;;;;;5128023;28;20069;-74
2021/06/17 08:50:20;;;;;;;7.82;4.20;;;30.60;48.80;;;;;;5121311;28;20084;-75
2021/06/17 08:52:46;;;;;;;9.63;4.70;;;30.60;49.30;;;;;;5133769;28;20022;-75
2021/06/17 08:55:20;;;;;;;7.80;4.18;;;30.70;48.20;;;;;;5124416;28;20030;-75
2021/06/17 08:57:49;;;;;;;10.48;4.75;;;30.80;49.60;;;;;;5115948;28;20103;-75
2021/06/17 09:00:20;;;;;;;7.53;3.80;;;30.90;47.40;;;;;;5115766;28;20028;-75
2021/06/17 09:02:57;;;;;;;7.38;3.90;;;31.00;47.70;;;;;;5114772;28;20025;-75
2021/06/17 09:05:24;;;;;;;10.10;4.53;;;31.20;49.30;;;;;;5115676;28;20030;-76
2021/06/17 09:07:52;;;;;;;11.80;4.53;;;31.30;46.60;;;;;;5116175;28;20039;-75
2021/06/17 09:10:18;;;;;;;8.50;4.32;;;31.40;46.70;;;;;;5116061;28;20103;-76
2021/06/17 09:12:49;;;;;;;8.50;3.50;;;31.40;46.60;;;;;;5114424;28;20416;-75
2021/06/17 09:15:26;;;;;;;8.23;3.95;;;31.50;46.20;;;;;;5115431;28;20027;-75
2021/06/17 09:18:19;;;;;;;5.22;3.75;;;31.60;47.50;;;;;;5114395;28;20091;-75
2021/06/17 09:21:00;;;;;;;7.55;3.70;;;31.80;46.40;;;;;;5115834;28;20016;-75
2021/06/17 09:23:27;;;;;;;7.95;3.83;;;32.00;45.80;;;;;;5113484;28;20027;-76
2021/06/17 09:25:58;;;;;;;6.32;3.67;;;32.30;45.80;;;;;;5115097;28;20052;-76
2021/06/17 09:28:24;;;;;;;11.93;4.00;;;32.30;45.50;;;;;;5115164;28;20490;-76
2021/06/17 09:30:49;;;;;;;9.63;3.97;;;32.20;46.30;;;;;;5113967;28;20039;-75
2021/06/17 09:33:15;;;;;;;5.47;3.65;;;32.30;45.40;;;;;;5115053;28;20059;-76
2021/06/17 09:36:07;;;;;;;7.90;3.40;;;32.40;44.90;;;;;;5114068;28;20024;-75
2021/06/17 09:38:42;;;;;;;8.30;3.65;;;32.70;46.80;;;;;;5111476;28;20040;-75
2021/06/17 09:41:08;;;;;;;9.23;3.45;;;32.90;44.60;;;;;;5115030;27;20456;-75
2021/06/17 09:43:42;;;;;;;5.35;3.63;;;33.20;44.00;;;;;;5113303;28;20026;-75
2021/06/17 09:46:10;;;;;;;7.28;3.67;;;33.20;43.20;;;;;;5114762;28;20567;-75
2021/06/17 09:48:44;;;;;;;7.15;3.78;;;33.30;44.50;;;;;;5115113;28;20483;-75
2021/06/17 09:51:29;;;;;;;8.35;3.97;;;33.40;44.50;;;;;;5114701;28;20023;-74
2021/06/17 09:54:25;;;;;;;7.65;3.78;;;33.40;44.80;;;;;;5115038;28;20054;-75
2021/06/17 09:57:05;;;;;;;8.43;4.20;;;33.50;42.80;;;;;;5113963;28;20102;-75
2021/06/17 09:59:40;;;;;;;9.00;3.85;;;33.50;42.80;;;;;;5116054;28;20084;-75
2021/06/17 10:02:07;;;;;;;6.07;3.42;;;33.40;43.00;;;;;;5131189;28;20039;-75
2021/06/17 10:04:34;;;;;;;7.47;3.35;;;33.40;44.30;;;;;;5124277;28;20024;-75
2021/06/17 10:07:00;;;;;;;6.35;3.30;;;33.40;46.70;;;;;;5113633;28;20055;-75
2021/06/17 10:09:26;;;;;;;5.65;3.22;;;33.40;46.80;;;;;;5134562;28;20028;-75
2021/06/17 10:11:53;;;;;;;6.85;3.88;;;33.40;45.20;;;;;;5116461;28;20055;-76
2021/06/17 10:14:19;;;;;;;6.70;3.95;;;33.30;45.20;;;;;;5113079;28;20055;-75
2021/06/17 10:16:45;;;;;;;5.82;3.20;;;33.40;44.00;;;;;;5114325;28;20059;-75
2021/06/17 10:19:12;;;;;;;9.30;4.45;;;33.50;46.00;;;;;;5112714;28;20532;-74
2021/06/17 10:21:38;;;;;;;4.70;2.90;;;33.50;42.90;;;;;;5112984;28;20020;-74
2021/06/17 10:24:30;;;;;;;9.02;3.88;;;33.50;46.40;;;;;;5114225;28;20390;-75
2021/06/17 10:27:06;;;;;;;6.13;3.13;;;33.60;45.80;;;;;;5113701;28;20019;-75
2021/06/17 10:29:39;;;;;;;6.05;3.53;;;33.70;46.80;;;;;;5113921;28;20023;-75
2021/06/17 10:32:07;;;;;;;7.18;4.32;;;34.00;44.40;;;;;;5114046;28;20016;-75
2021/06/17 10:34:36;;;;;;;9.48;5.10;;;34.20;42.60;;;;;;5113729;28;20023;-75
2021/06/17 10:37:09;;;;;;;;;;;34.30;42.50;;;;;;5114303;28;20031;-74
2021/06/17 10:39:44;;;;;;;7.65;4.95;;;34.30;46.40;;;;;;5113899;28;19911;-75
2021/06/17 10:42:15;;;;;;;6.70;3.72;;;34.50;43.80;;;;;;5113661;28;20015;-75
2021/06/17 10:45:01;;;;;;;6.80;3.78;;;34.60;43.60;;;;;;5113883;28;20460;-75
2021/06/17 10:47:48;;;;;;;6.88;3.28;;;34.60;46.40;;;;;;5113827;28;20024;-75
2021/06/17 10:50:15;;;;;;;6.95;3.78;;;34.50;46.00;;;;;;5125977;28;20061;-76
2021/06/17 10:52:42;;;;;;;6.47;3.38;;;34.50;46.40;;;;;;5123724;28;20115;-75
2021/06/17 10:55:13;;;;;;;6.05;3.33;;;34.60;46.00;;;;;;5124173;28;20020;-75
2021/06/17 10:57:42;;;;;;;7.47;3.60;;;34.70;47.40;;;;;;5126066;28;20037;-75
2021/06/17 11:00:29;;;;;;;7.82;3.92;;;34.60;48.30;;;;;;5114024;28;20055;-75
2021/06/17 11:03:17;;;;;;;9.68;4.05;;;34.60;46.90;;;;;;5113523;28;20141;-74
2021/06/17 11:05:49;;;;;;;6.65;3.58;;;34.50;45.40;;;;;;5112341;28;20424;-75
2021/06/17 11:08:25;;;;;;;8.65;4.13;;;34.60;48.10;;;;;;5113191;28;20371;-74
2021/06/17 11:11:05;;;;;;;9.20;2.80;;;34.60;46.60;;;;;;5111860;28;20024;-74
2021/06/17 11:13:54;;;;;;;8.48;4.53;;;34.80;47.40;;;;;;5113201;28;20027;-74
2021/06/17 11:16:20;;;;;;;7.38;4.55;;;34.80;47.10;;;;;;5107388;28;20143;-74
2021/06/17 11:18:56;;;;;;;9.30;3.83;;;34.90;44.70;;;;;;5112961;28;20060;-75
2021/06/17 11:21:26;;;;;;;7.90;4.13;;;34.80;46.00;;;;;;5111803;28;20051;-75
2021/06/17 11:24:11;;;;;;;6.78;3.90;;;34.90;45.90;;;;;;5111956;28;20114;-76
2021/06/17 11:26:45;;;;;;;10.02;5.10;;;35.10;45.20;;;;;;5113226;28;20023;-75
2021/06/17 11:29:15;;;;;;;7.30;4.32;;;35.20;44.60;;;;;;5112906;28;20049;-75
2021/06/17 11:31:45;;;;;;;8.90;4.32;;;35.40;47.20;;;;;;5113412;28;20031;-74
2021/06/17 11:34:13;;;;;;;10.35;5.13;;;35.30;46.70;;;;;;5113021;28;20448;-75
2021/06/17 11:36:53;;;;;;;8.05;4.68;;;35.50;44.20;;;;;;5113566;28;20030;-75
2021/06/17 11:39:23;;;;;;;10.38;4.10;;;35.60;45.40;;;;;;5112888;28;20034;-75
2021/06/17 11:41:49;;;;;;;12.35;4.70;;;35.60;46.90;;;;;;5112023;28;20111;-74
2021/06/17 11:44:23;;;;;;;8.02;4.32;;;35.60;44.90;;;;;;5111665;28;20055;-74
2021/06/17 11:46:51;;;;;;;8.60;4.10;;;35.60;43.30;;;;;;5111865;28;20024;-76
2021/06/17 11:49:18;;;;;;;7.90;4.18;;;35.80;44.70;;;;;;5106198;28;20027;-75
2021/06/17 11:51:51;;;;;;;7.65;3.95;;;35.90;43.20;;;;;;5109410;28;20051;-75
2021/06/17 11:54:26;;;;;;;7.50;4.05;;;36.00;42.60;;;;;;5112384;28;20095;-75
2021/06/17 11:56:56;;;;;;;8.73;3.70;;;36.20;43.80;;;;;;5113394;28;20051;-74
2021/06/17 11:59:25;;;;;;;6.93;4.15;;;36.20;44.80;;;;;;5113429;28;20023;-74
2021/06/17 12:02:18;;;;;;;7.18;4.32;;;36.10;42.60;;;;;;5117130;28;20409;-76
2021/06/17 12:04:55;;;;;;;7.30;4.25;;;36.00;42.10;;;;;;5132337;28;20031;-75
2021/06/17 12:07:33;;;;;;;7.40;3.70;;;36.10;41.00;;;;;;5114934;28;20072;-74
2021/06/17 12:10:05;;;;;;;7.28;3.75;;;36.40;44.70;;;;;;5116860;28;20527;-74
2021/06/17 12:12:31;;;;;;;7.85;4.18;;;36.40;42.50;;;;;;5115355;28;20020;-75
2021/06/17 12:14:57;;;;;;;9.25;3.92;;;36.20;46.00;;;;;;5116573;28;20153;-75
2021/06/17 12:17:41;;;;;;;7.60;4.22;;;36.10;42.70;;;;;;5115345;28;20183;-73
2021/06/17 12:20:12;;;;;;;7.78;2.80;;;35.90;44.60;;;;;;5116511;28;20027;-74
2021/06/17 12:22:43;;;;;;;4.95;3.03;;;35.70;41.10;;;;;;5114777;28;20064;-73
2021/06/17 12:25:09;;;;;;;4.45;2.85;;;35.40;45.10;;;;;;5113982;28;20027;-74
2021/06/17 12:27:40;;;;;;;7.65;3.28;;;35.30;45.90;;;;;;5115953;28;20372;-74
2021/06/17 12:30:26;;;;;;;6.47;3.88;;;35.30;46.90;;;;;;5116405;28;20494;-74
2021/06/17 12:32:53;;;;;;;7.05;4.10;;;35.30;41.70;;;;;;5114962;28;20379;-75
2021/06/17 12:35:18;;;;;;;5.43;3.15;;;35.40;42.30;;;;;;5114826;28;20456;-75
2021/06/17 12:37:59;;;;;;;6.68;2.95;;;35.60;43.90;;;;;;5114387;28;20071;-75
2021/06/17 12:40:33;;;;;;;11.77;2.75;;;35.80;42.00;;;;;;5115924;28;20051;-75
2021/06/17 12:43:06;;;;;;;5.25;2.55;;;35.90;41.50;;;;;;5116284;28;20483;-75
2021/06/17 12:45:35;;;;;;;6.70;3.05;;;35.70;42.80;;;;;;5114570;28;20498;-75
2021/06/17 12:48:07;;;;;;;9.30;3.00;;;35.50;41.80;;;;;;5114695;28;20023;-75
2021/06/17 12:53:17;;;;;;;6.55;3.28;;;35.50;39.00;;;;;;5121353;28;20057;-74
2021/06/17 12:55:45;;;;;;;10.48;2.95;;;35.50;39.50;;;;;;5132134;28;20464;-74
2021/06/17 12:58:13;;;;;;;9.27;3.90;;;35.50;40.10;;;;;;5123355;28;20030;-74